Impacts METAR Board INFO
IDs:

KMCO - Orlando Intl, FL, US

Updated at: 0819 UTC 12 Dec 2017
Potential Impact None Slight Moderate High
Time11/20Z 11/21Z 11/22Z 11/23Z 12/00Z 12/01Z 12/02Z 12/03Z 12/04Z 12/05Z 12/06Z 12/07Z 12/08Z
VIS10 10 10 10 10 10 10 10 10 10 10 10 10
CIG-- -- -- -- -- -- -- -- -- -- -- -- --
CoverFEWFEWCLRCLRCLRCLRCLRCLRCLRCLRFEWFEWCLR
FltCatVFRVFRVFRVFRVFRVFRVFRVFRVFRVFRVFRVFRVFR
WX--------------------------
WDir300320270270310270270290270270270230210
WSpd6 8 5 6 5 3 8 8 9 5 6 8 8
WGst-- -- -- -- -- -- -- -- -- -- -- -- --
Raw hourly METARs
KMCO 111953Z 30006KT 10SM FEW250 16/M03 A3018
KMCO 112053Z 32008KT 10SM FEW250 16/M02 A3018
KMCO 112153Z 27005KT 10SM CLR 15/M01 A3017
KMCO 112253Z 27006KT 10SM CLR 12/M01 A3018
KMCO 112353Z 31005KT 10SM CLR 11/M01 A3019
KMCO 120053Z 27003KT 10SM CLR 10/M00 A3019
KMCO 120153Z 27008KT 10SM CLR 10/00 A3019
KMCO 120253Z 29008KT 10SM CLR 10/00 A3019
KMCO 120353Z 27009KT 10SM CLR 06/03 A3017
KMCO 120453Z 27005KT 10SM CLR 05/04 A3015
KMCO 120553Z 27006KT 10SM FEW250 04/04 A3013
KMCO 120653Z 23008KT 10SM FEW250 07/05 A3011
KMCO 120753Z 21008KT 10SM CLR 06/05 A3010